Time;durP1;ratioP1;P1;durP2;ratioP2;P2;SDS_P1;SDS_P2;PMS_P1;PMS_P2;Temp;Humidity;BMP_temperature;BMP_pressure;BME280_temperature;BME280_humidity;BME280_pressure;Samples;Min_cycle;Max_cycle;Signal;HPM_P1;HPM_P2
2022/05/03 00:01:43;;;;;;;5.23;3.23;;;12.90;82.60;;;;;;5053688;28;20212;-57
2022/05/03 00:04:14;;;;;;;6.90;3.40;;;12.90;82.80;;;;;;5053729;28;20236;-57
2022/05/03 00:06:49;;;;;;;5.53;3.10;;;12.80;83.00;;;;;;5053967;28;20194;-56
2022/05/03 00:09:25;;;;;;;6.63;3.33;;;12.80;83.40;;;;;;5053776;28;20193;-57
2022/05/03 00:11:57;;;;;;;7.23;3.60;;;12.70;83.50;;;;;;5053986;28;20189;-57
2022/05/03 00:14:31;;;;;;;4.90;3.03;;;12.70;83.80;;;;;;5053755;28;20194;-58
2022/05/03 00:16:59;;;;;;;8.47;3.93;;;12.70;83.90;;;;;;5053870;28;20651;-57
2022/05/03 00:19:26;;;;;;;10.30;4.83;;;12.70;84.20;;;;;;5053766;28;20201;-57
2022/05/03 00:21:53;;;;;;;7.53;3.83;;;12.60;84.90;;;;;;5053583;28;20217;-58
2022/05/03 00:24:22;;;;;;;8.23;4.37;;;12.60;84.90;;;;;;5053726;28;20213;-58
2022/05/03 00:26:50;;;;;;;7.10;4.33;;;12.60;85.10;;;;;;5053582;28;20564;-57
2022/05/03 00:29:18;;;;;;;7.77;4.60;;;12.60;85.20;;;;;;5053630;28;20766;-57
2022/05/03 00:31:46;;;;;;;7.40;4.10;;;12.60;85.40;;;;;;5053682;28;20220;-56
2022/05/03 00:34:14;;;;;;;8.07;4.20;;;12.60;85.60;;;;;;5053321;28;20209;-58
2022/05/03 00:36:40;;;;;;;11.20;5.23;;;12.50;86.50;;;;;;5052997;28;20224;-58
2022/05/03 00:39:07;;;;;;;9.43;4.73;;;12.50;88.60;;;;;;5053342;28;20573;-57
2022/05/03 00:41:41;;;;;;;10.03;4.90;;;12.50;88.30;;;;;;5053238;28;20548;-57
2022/05/03 00:47:05;;;;;;;8.63;5.37;;;12.40;90.10;;;;;;5052189;28;20632;-57
2022/05/03 00:49:45;;;;;;;8.97;4.90;;;12.30;90.00;;;;;;5053187;28;20193;-58
2022/05/03 00:52:21;;;;;;;8.70;4.90;;;12.30;90.10;;;;;;5053288;28;20189;-58
2022/05/03 00:55:05;;;;;;;8.83;4.67;;;12.20;89.70;;;;;;5053370;28;20550;-57
2022/05/03 00:57:42;;;;;;;9.17;4.47;;;12.30;89.60;;;;;;5052748;28;20199;-57
2022/05/03 01:00:11;;;;;;;7.57;4.40;;;12.30;89.20;;;;;;5053144;28;20193;-57
2022/05/03 01:03:15;;;;;;;7.60;4.57;;;12.30;88.90;;;;;;5052589;28;20726;-57
2022/05/03 01:06:07;;;;;;;9.83;4.80;;;12.30;89.00;;;;;;5005596;28;20231;-56
2022/05/03 01:08:39;;;;;;;8.57;4.53;;;12.30;89.50;;;;;;5052812;28;20205;-57
2022/05/03 01:11:21;;;;;;;9.17;4.60;;;12.30;89.60;;;;;;5052631;28;20284;-57
2022/05/03 01:14:00;;;;;;;10.43;4.10;;;12.30;89.30;;;;;;5052833;28;20189;-58
2022/05/03 01:16:33;;;;;;;10.20;4.50;;;12.30;89.20;;;;;;5052773;28;20198;-58
2022/05/03 01:19:05;;;;;;;8.40;4.53;;;12.30;89.00;;;;;;5052813;28;20689;-58
2022/05/03 01:22:04;;;;;;;10.13;5.37;;;12.30;89.20;;;;;;5052098;28;20221;-61
2022/05/03 01:24:52;;;;;;;7.47;4.60;;;12.40;90.50;;;;;;5052574;28;20205;-57
2022/05/03 01:27:48;;;;;;;9.70;4.93;;;12.30;90.90;;;;;;5052548;28;20524;-58
2022/05/03 01:30:18;;;;;;;8.43;4.80;;;12.20;91.60;;;;;;5052420;28;20205;-57
2022/05/03 01:32:46;;;;;;;8.53;4.67;;;12.20;91.80;;;;;;5052051;28;20202;-55
2022/05/03 01:35:14;;;;;;;8.67;4.73;;;12.10;91.80;;;;;;5052157;28;20209;-55
2022/05/03 01:38:04;;;;;;;8.50;4.67;;;12.10;91.60;;;;;;5052346;28;20557;-57
2022/05/03 01:40:44;;;;;;;10.37;4.80;;;12.10;91.40;;;;;;5052230;28;20202;-57
2022/05/03 01:43:13;;;;;;;6.87;4.20;;;12.10;91.00;;;;;;5052140;28;20702;-56
2022/05/03 01:46:03;;;;;;;8.13;4.17;;;12.20;90.60;;;;;;5052173;28;20217;-56
2022/05/03 01:51:50;;;;;;;7.27;3.80;;;12.20;90.40;;;;;;5052105;28;20598;-57
2022/05/03 01:54:37;;;;;;;5.17;3.60;;;12.30;90.20;;;;;;5052188;28;20193;-57
2022/05/03 01:57:11;;;;;;;6.17;4.00;;;12.30;90.10;;;;;;5052095;28;20201;-58
2022/05/03 01:59:48;;;;;;;6.07;3.77;;;12.30;90.20;;;;;;5051858;28;20194;-57
2022/05/03 02:02:26;;;;;;;7.07;4.00;;;12.30;90.10;;;;;;5051478;28;20216;-57
2022/05/03 02:05:04;;;;;;;6.93;4.00;;;12.30;90.30;;;;;;5052019;28;20613;-57
2022/05/03 02:07:45;;;;;;;6.80;4.10;;;12.40;90.30;;;;;;5051418;28;20189;-57
2022/05/03 02:10:18;;;;;;;6.97;4.10;;;12.40;90.20;;;;;;5051704;28;20213;-56
2022/05/03 02:12:52;;;;;;;12.07;4.53;;;12.40;90.30;;;;;;5051841;28;20190;-58
2022/05/03 02:15:29;;;;;;;6.23;4.30;;;12.40;90.80;;;;;;5051510;28;20201;-58
2022/05/03 02:18:05;;;;;;;10.07;4.53;;;12.40;91.80;;;;;;5051914;28;20227;-58
2022/05/03 02:20:57;;;;;;;8.37;4.87;;;12.30;92.10;;;;;;5051543;28;20185;-57
2022/05/03 02:23:41;;;;;;;5.97;4.20;;;12.20;92.40;;;;;;5051608;28;20568;-58
2022/05/03 02:26:27;;;;;;;8.97;4.50;;;12.20;92.20;;;;;;5051688;28;20280;-58
2022/05/03 02:28:56;;;;;;;7.70;4.33;;;12.10;91.70;;;;;;5051665;28;20632;-56
2022/05/03 02:31:32;;;;;;;8.13;4.00;;;12.20;91.50;;;;;;5051562;28;20213;-56
2022/05/03 02:34:08;;;;;;;7.73;4.10;;;12.20;91.30;;;;;;5055060;28;20194;-56
2022/05/03 02:36:43;;;;;;;7.37;4.03;;;12.20;91.20;;;;;;5056183;28;20550;-56
2022/05/03 02:39:12;;;;;;;8.60;4.47;;;12.20;90.90;;;;;;5055621;28;20643;-56
2022/05/03 02:41:40;;;;;;;7.73;4.23;;;12.30;90.80;;;;;;5055477;28;20560;-57
2022/05/03 02:44:07;;;;;;;6.83;4.10;;;12.30;90.50;;;;;;5055298;28;20576;-57
2022/05/03 02:46:54;;;;;;;8.83;4.50;;;12.30;90.30;;;;;;5055700;28;20212;-57
2022/05/03 02:49:59;;;;;;;7.43;4.10;;;12.30;90.50;;;;;;5055432;28;20204;-58
2022/05/03 02:52:35;;;;;;;8.37;3.80;;;12.30;90.60;;;;;;5055361;28;20201;-59
2022/05/03 02:55:09;;;;;;;6.47;3.90;;;12.40;90.70;;;;;;5055426;28;20399;-58
2022/05/03 02:57:46;;;;;;;6.40;3.40;;;12.40;90.90;;;;;;5055839;28;20200;-57
2022/05/03 03:03:07;;;;;;;5.50;3.70;;;12.50;91.10;;;;;;5054777;28;20236;-58
2022/05/03 03:05:38;;;;;;;6.03;3.60;;;12.50;91.10;;;;;;5055595;28;20315;-57
2022/05/03 03:08:05;;;;;;;5.93;3.60;;;12.50;91.10;;;;;;5055195;28;20247;-57
2022/05/03 03:10:39;;;;;;;5.40;3.40;;;12.60;91.20;;;;;;5055210;28;20209;-55
2022/05/03 03:13:14;;;;;;;6.03;3.70;;;12.70;91.20;;;;;;5054870;28;20193;-56
2022/05/03 03:15:42;;;;;;;4.47;3.17;;;12.80;91.20;;;;;;5055104;28;20208;-58
2022/05/03 03:18:13;;;;;;;7.23;3.23;;;12.80;91.30;;;;;;5054564;28;20209;-57
2022/05/03 03:20:45;;;;;;;4.63;3.40;;;12.90;91.20;;;;;;5055088;28;20545;-58
2022/05/03 03:23:15;;;;;;;6.13;3.50;;;12.90;91.40;;;;;;5054846;28;20218;-58
2022/05/03 03:25:43;;;;;;;6.43;3.70;;;12.90;91.40;;;;;;5054591;28;20189;-58
2022/05/03 03:28:13;;;;;;;4.70;3.60;;;13.00;91.30;;;;;;5054862;28;20574;-57
2022/05/03 03:30:41;;;;;;;9.03;4.60;;;13.00;91.20;;;;;;5054974;28;20208;-57
2022/05/03 03:33:09;;;;;;;7.93;3.90;;;13.00;91.30;;;;;;5054695;28;20201;-57
2022/05/03 03:35:37;;;;;;;9.00;4.37;;;13.10;91.10;;;;;;5054523;28;20205;-57
2022/05/03 03:38:06;;;;;;;7.47;3.63;;;13.10;90.90;;;;;;5054066;28;20222;-56
2022/05/03 03:40:33;;;;;;;5.70;3.80;;;13.20;91.20;;;;;;5054513;28;20209;-57
2022/05/03 03:43:00;;;;;;;9.13;3.83;;;13.20;91.20;;;;;;5053677;28;20235;-58
2022/05/03 03:45:27;;;;;;;4.23;3.20;;;13.20;91.30;;;;;;5054602;28;20206;-59
2022/05/03 03:47:55;;;;;;;4.60;3.10;;;13.20;91.30;;;;;;5054470;28;20216;-57
2022/05/03 03:50:25;;;;;;;4.80;3.67;;;13.30;91.10;;;;;;5054365;28;20205;-57
2022/05/03 03:52:53;;;;;;;4.30;3.37;;;13.30;91.00;;;;;;5054639;28;20213;-57
2022/05/03 03:55:22;;;;;;;4.97;3.30;;;13.30;91.00;;;;;;5054143;28;20218;-59
2022/05/03 03:57:50;;;;;;;5.63;3.70;;;13.40;90.90;;;;;;5054382;28;20205;-57
2022/05/03 04:00:18;;;;;;;7.03;3.97;;;13.40;90.90;;;;;;5054251;28;20209;-57
2022/05/03 04:02:46;;;;;;;8.10;3.70;;;13.30;90.90;;;;;;5054079;28;20576;-54
2022/05/03 04:05:15;;;;;;;4.77;3.10;;;13.30;91.10;;;;;;5054045;28;20214;-57
2022/05/03 04:07:43;;;;;;;5.60;3.57;;;13.30;91.00;;;;;;5053981;28;20652;-57
2022/05/03 04:10:10;;;;;;;5.20;3.43;;;13.30;90.90;;;;;;5053783;28;20209;-58
2022/05/03 04:12:39;;;;;;;5.40;3.33;;;13.30;91.00;;;;;;5053836;28;20241;-55
2022/05/03 04:15:07;;;;;;;5.87;3.30;;;13.30;91.00;;;;;;5053780;28;20228;-59
2022/05/03 04:17:34;;;;;;;5.93;3.43;;;13.40;91.00;;;;;;5053973;28;20296;-56
2022/05/03 04:20:01;;;;;;;4.93;3.40;;;13.40;90.90;;;;;;5053782;28;20205;-56
2022/05/03 04:22:29;;;;;;;8.13;4.20;;;13.50;90.90;;;;;;5053626;28;20691;-57
2022/05/03 04:24:57;;;;;;;11.20;4.40;;;13.60;91.30;;;;;;5053385;28;20221;-57
2022/05/03 04:27:24;;;;;;;7.33;4.57;;;13.60;91.00;;;;;;5053770;28;20723;-60
2022/05/03 04:29:53;;;;;;;7.10;4.63;;;13.60;91.10;;;;;;5053499;28;20212;-57
2022/05/03 04:32:20;;;;;;;6.20;4.07;;;13.70;91.20;;;;;;5053240;28;20209;-59
2022/05/03 04:34:47;;;;;;;7.10;4.43;;;13.80;91.30;;;;;;5053266;28;20216;-56
2022/05/03 04:37:14;;;;;;;7.67;4.73;;;13.90;91.30;;;;;;5053388;28;20550;-58
2022/05/03 04:39:41;;;;;;;6.93;4.20;;;14.00;91.30;;;;;;5053072;28;20209;-56
2022/05/03 04:42:08;;;;;;;8.47;5.17;;;14.10;91.30;;;;;;5053216;28;20215;-57
2022/05/03 04:44:35;;;;;;;16.93;4.37;;;14.10;91.20;;;;;;5053460;28;20225;-57
2022/05/03 04:47:04;;;;;;;7.10;4.07;;;14.30;91.20;;;;;;5053150;28;20237;-58
2022/05/03 04:49:31;;;;;;;10.17;4.60;;;14.40;91.40;;;;;;5053023;28;20244;-56
2022/05/03 04:51:58;;;;;;;6.90;4.30;;;14.50;91.50;;;;;;5053085;28;20205;-58
2022/05/03 04:54:24;;;;;;;7.87;4.50;;;14.70;91.60;;;;;;5052574;28;20201;-58
2022/05/03 04:56:54;;;;;;;8.43;4.03;;;14.80;91.50;;;;;;5052381;28;20209;-58
2022/05/03 04:59:21;;;;;;;6.50;4.23;;;15.00;91.40;;;;;;5053003;28;20292;-58
2022/05/03 05:01:48;;;;;;;6.37;4.00;;;15.20;91.40;;;;;;5052675;28;20282;-60
2022/05/03 05:04:16;;;;;;;8.57;4.37;;;15.30;91.40;;;;;;5052487;28;20237;-58
2022/05/03 05:06:43;;;;;;;4.67;3.23;;;15.40;91.20;;;;;;5053151;28;20278;-59
2022/05/03 05:09:10;;;;;;;4.00;2.80;;;15.50;90.60;;;;;;5052666;28;20208;-58
2022/05/03 05:11:37;;;;;;;4.30;2.70;;;15.70;90.20;;;;;;5052746;28;20224;-58
2022/05/03 05:14:04;;;;;;;5.27;2.87;;;15.70;90.30;;;;;;5052492;28;20209;-57
2022/05/03 05:16:30;;;;;;;7.30;2.70;;;15.80;90.20;;;;;;5052751;28;20205;-58
2022/05/03 05:18:57;;;;;;;7.53;4.17;;;16.00;89.50;;;;;;5052431;28;20205;-58
2022/05/03 05:21:25;;;;;;;6.53;2.87;;;16.00;89.10;;;;;;5052514;28;20209;-58
2022/05/03 05:23:52;;;;;;;6.90;3.40;;;16.10;87.70;;;;;;5052371;28;20225;-58
2022/05/03 05:26:19;;;;;;;3.43;2.23;;;16.20;87.70;;;;;;5052296;28;20706;-58
2022/05/03 05:28:46;;;;;;;3.43;2.20;;;16.30;87.70;;;;;;5052156;28;20320;-58
2022/05/03 05:31:13;;;;;;;4.73;2.40;;;16.40;86.90;;;;;;5052395;28;20291;-59
2022/05/03 05:33:40;;;;;;;3.47;2.60;;;16.50;86.20;;;;;;5052334;28;20201;-59
2022/05/03 05:36:07;;;;;;;4.10;2.40;;;16.50;85.80;;;;;;5052298;28;20561;-57
2022/05/03 05:38:35;;;;;;;7.40;2.70;;;16.60;85.80;;;;;;5052047;28;20293;-58
2022/05/03 05:41:12;;;;;;;6.73;2.80;;;16.70;86.20;;;;;;5052255;28;20206;-58
2022/05/03 05:43:39;;;;;;;6.70;3.07;;;16.70;85.80;;;;;;5052131;28;20217;-57
2022/05/03 05:46:07;;;;;;;7.57;2.70;;;16.80;86.00;;;;;;5052235;28;20603;-60
2022/05/03 05:48:34;;;;;;;10.37;3.00;;;16.90;86.30;;;;;;5052197;28;20594;-57
2022/05/03 05:51:00;;;;;;;5.50;2.90;;;16.90;85.90;;;;;;5052390;28;20201;-58
2022/05/03 05:53:33;;;;;;;7.07;2.70;;;17.00;86.00;;;;;;5052193;28;20652;-57
2022/05/03 05:56:01;;;;;;;5.63;2.60;;;17.00;86.50;;;;;;5052213;28;20208;-58
2022/05/03 05:58:28;;;;;;;4.17;2.57;;;17.00;87.00;;;;;;5051886;28;20204;-57
2022/05/03 06:00:56;;;;;;;4.43;2.30;;;17.10;87.30;;;;;;5051694;28;20206;-57
2022/05/03 06:03:23;;;;;;;5.73;2.73;;;17.20;87.20;;;;;;5051472;28;20234;-58
2022/05/03 06:05:51;;;;;;;6.33;3.70;;;17.20;86.10;;;;;;5051487;28;20213;-57
2022/05/03 06:08:18;;;;;;;7.57;3.13;;;17.30;86.10;;;;;;5051604;28;20247;-57
2022/05/03 06:10:44;;;;;;;3.67;2.27;;;17.40;85.70;;;;;;5051680;28;20217;-59
2022/05/03 06:13:13;;;;;;;7.30;2.70;;;17.50;85.20;;;;;;5051882;28;20238;-59
2022/05/03 06:15:41;;;;;;;4.53;2.50;;;17.60;84.50;;;;;;5052139;28;20217;-57
2022/05/03 06:18:08;;;;;;;2.70;2.20;;;17.60;84.00;;;;;;5051653;28;20206;-58
2022/05/03 06:20:36;;;;;;;6.67;3.27;;;17.70;83.90;;;;;;5051544;28;20209;-58
2022/05/03 06:23:04;;;;;;;5.10;2.60;;;17.80;83.40;;;;;;5051715;28;20691;-56
2022/05/03 06:25:31;;;;;;;3.73;2.83;;;17.90;83.70;;;;;;5051544;28;20213;-56
2022/05/03 06:27:57;;;;;;;3.63;2.67;;;18.00;83.60;;;;;;5051421;28;20604;-58
2022/05/03 06:30:26;;;;;;;3.07;2.30;;;18.00;82.50;;;;;;5051559;28;20226;-59
2022/05/03 06:32:52;;;;;;;7.17;2.90;;;18.10;82.30;;;;;;5051302;28;20222;-58
2022/05/03 06:35:21;;;;;;;7.67;2.60;;;18.20;81.60;;;;;;5051130;28;20207;-57
2022/05/03 06:37:47;;;;;;;3.97;2.30;;;18.30;79.40;;;;;;5050989;28;20232;-56
2022/05/03 06:40:14;;;;;;;4.17;2.00;;;18.30;79.50;;;;;;5051596;28;20669;-59
2022/05/03 06:42:42;;;;;;;3.93;2.00;;;18.30;79.20;;;;;;5050904;28;20214;-57
2022/05/03 06:45:10;;;;;;;4.00;2.17;;;18.40;78.40;;;;;;5051129;28;20312;-59
2022/05/03 06:47:40;;;;;;;4.50;2.20;;;18.40;77.80;;;;;;5051681;28;20209;-60
2022/05/03 06:50:08;;;;;;;6.23;2.13;;;18.40;78.40;;;;;;5051433;28;20672;-57
2022/05/03 06:52:35;;;;;;;4.03;2.40;;;18.40;79.00;;;;;;5050915;28;20811;-59
2022/05/03 06:55:03;;;;;;;7.07;2.90;;;18.50;79.20;;;;;;5050931;28;20202;-58
2022/05/03 06:57:30;;;;;;;5.40;2.40;;;18.50;79.60;;;;;;5051212;28;20211;-57
2022/05/03 07:00:00;;;;;;;5.03;2.80;;;18.50;80.30;;;;;;5051454;28;20211;-58
2022/05/03 07:02:30;;;;;;;4.97;2.73;;;18.60;81.10;;;;;;5051107;28;20274;-58
2022/05/03 07:04:58;;;;;;;3.80;2.20;;;18.70;81.20;;;;;;5051210;28;20674;-56
2022/05/03 07:07:25;;;;;;;3.73;2.20;;;18.70;81.20;;;;;;5051284;28;20246;-58
2022/05/03 07:09:52;;;;;;;2.83;2.10;;;18.70;80.10;;;;;;5051235;28;20208;-59
2022/05/03 07:12:19;;;;;;;4.93;2.17;;;18.70;79.60;;;;;;5051106;28;20209;-61
2022/05/03 07:14:46;;;;;;;4.23;2.40;;;18.80;79.20;;;;;;5051390;28;20227;-58
2022/05/03 07:22:45;;;;;;;4.47;2.30;;;18.80;79.50;;;;;;5051138;28;20204;-58
2022/05/03 07:22:50;;;;;;;2.83;2.00;;;18.90;78.70;;;;;;5054455;28;20229;-58
2022/05/03 07:25:17;;;;;;;3.03;2.00;;;18.90;78.60;;;;;;5054445;28;20209;-58
2022/05/03 07:27:46;;;;;;;4.17;2.00;;;18.90;79.40;;;;;;5054588;28;20209;-58
2022/05/03 07:30:13;;;;;;;3.27;2.07;;;18.90;79.40;;;;;;5054611;28;20647;-59
2022/05/03 07:32:40;;;;;;;4.67;2.17;;;18.90;78.70;;;;;;5054254;28;20261;-58
2022/05/03 07:35:09;;;;;;;4.43;2.20;;;18.90;77.90;;;;;;5054473;28;20202;-58
2022/05/03 07:37:36;;;;;;;5.03;2.20;;;18.80;78.60;;;;;;5054411;28;20229;-57
2022/05/03 07:40:03;;;;;;;3.33;2.43;;;18.80;79.00;;;;;;5054458;28;20258;-60
2022/05/03 07:42:30;;;;;;;4.60;2.87;;;18.80;79.00;;;;;;5054164;28;20208;-59
2022/05/03 07:44:57;;;;;;;6.20;2.80;;;18.90;79.30;;;;;;5054229;28;20235;-58
2022/05/03 07:47:23;;;;;;;8.47;3.80;;;18.90;79.50;;;;;;5054104;28;20211;-59
2022/05/03 07:49:50;;;;;;;14.63;6.57;;;18.90;80.00;;;;;;5054057;28;20217;-57
2022/05/03 07:52:18;;;;;;;5.63;3.90;;;19.00;80.90;;;;;;5054153;28;20320;-58
2022/05/03 07:54:45;;;;;;;7.00;3.10;;;19.00;80.10;;;;;;5054024;28;20200;-60
2022/05/03 07:57:13;;;;;;;4.47;2.97;;;19.00;79.50;;;;;;5054227;28;20215;-59
2022/05/03 07:59:40;;;;;;;4.70;2.33;;;19.00;79.40;;;;;;5053792;28;20302;-58
2022/05/03 08:02:07;;;;;;;3.57;2.23;;;19.10;78.90;;;;;;5053865;28;20218;-60
2022/05/03 08:04:34;;;;;;;4.03;2.40;;;19.20;78.90;;;;;;5054070;28;20206;-59
2022/05/03 08:07:01;;;;;;;5.27;2.80;;;19.20;78.80;;;;;;5054060;28;20660;-59
2022/05/03 08:09:29;;;;;;;5.87;2.50;;;19.20;78.00;;;;;;5053929;28;20208;-59
2022/05/03 08:11:57;;;;;;;3.47;2.47;;;19.30;77.00;;;;;;5053954;28;20345;-61
2022/05/03 08:14:27;;;;;;;3.23;2.10;;;19.40;77.50;;;;;;5053345;28;20479;-59
2022/05/03 08:16:55;;;;;;;4.97;2.30;;;19.40;77.50;;;;;;5053917;28;20193;-57
2022/05/03 08:19:22;;;;;;;4.70;2.10;;;19.40;76.10;;;;;;5053714;28;20259;-58
2022/05/03 08:21:48;;;;;;;4.17;2.03;;;19.40;76.40;;;;;;5053520;28;20212;-59
2022/05/03 08:24:16;;;;;;;7.07;2.70;;;19.40;76.70;;;;;;5053670;28;20226;-59
2022/05/03 08:26:45;;;;;;;4.53;2.60;;;19.40;76.10;;;;;;5053582;28;20213;-60
2022/05/03 08:29:11;;;;;;;16.40;3.50;;;19.40;75.80;;;;;;5053626;28;20216;-58
2022/05/03 08:31:38;;;;;;;21.07;3.33;;;19.50;76.00;;;;;;5053577;28;20563;-59
2022/05/03 08:34:05;;;;;;;6.33;2.60;;;19.50;76.50;;;;;;5053618;28;20207;-58
2022/05/03 08:36:32;;;;;;;5.53;2.40;;;19.50;76.70;;;;;;5053274;28;20687;-58
2022/05/03 08:44:26;;;;;;;3.30;2.20;;;19.60;76.30;;;;;;5050327;28;20239;-58
2022/05/03 08:46:55;;;;;;;5.20;2.10;;;19.60;75.70;;;;;;5053425;28;20201;-59
2022/05/03 08:49:24;;;;;;;3.53;2.23;;;19.60;76.40;;;;;;5053174;28;20571;-58
2022/05/03 08:51:53;;;;;;;11.97;2.57;;;19.60;76.30;;;;;;5053257;28;20201;-59
2022/05/03 08:54:21;;;;;;;3.93;2.37;;;19.70;75.60;;;;;;5052758;28;20202;-58
2022/05/03 08:56:49;;;;;;;6.00;2.40;;;19.70;75.50;;;;;;5052871;28;20205;-57
2022/05/03 08:59:16;;;;;;;9.30;2.90;;;19.70;75.50;;;;;;5052584;28;20227;-59
2022/05/03 09:01:43;;;;;;;4.93;2.10;;;19.80;74.60;;;;;;5053085;28;20675;-59
2022/05/03 09:04:10;;;;;;;3.77;2.20;;;19.80;74.10;;;;;;5052592;28;20233;-58
2022/05/03 09:06:45;;;;;;;4.50;2.00;;;19.80;74.50;;;;;;5052873;28;20218;-57
2022/05/03 09:09:13;;;;;;;10.30;2.47;;;19.80;75.00;;;;;;5052758;28;20216;-57
2022/05/03 09:11:45;;;;;;;4.73;2.33;;;19.90;75.80;;;;;;5052928;28;20300;-59
2022/05/03 09:14:15;;;;;;;2.90;1.93;;;19.90;74.10;;;;;;5052446;28;20209;-59
2022/05/03 09:16:49;;;;;;;3.10;2.10;;;19.90;73.10;;;;;;5052374;28;20314;-60
2022/05/03 09:19:23;;;;;;;4.97;2.10;;;20.00;71.70;;;;;;5052914;28;20205;-60
2022/05/03 09:24:54;;;;;;;4.03;2.00;;;20.10;71.50;;;;;;5052350;28;20288;-59
2022/05/03 09:27:22;;;;;;;2.83;1.80;;;20.10;70.40;;;;;;5052124;28;20217;-59
2022/05/03 09:30:04;;;;;;;4.33;2.00;;;20.10;69.20;;;;;;5052594;28;20208;-58
2022/05/03 09:32:35;;;;;;;2.63;1.73;;;20.20;70.10;;;;;;5052531;28;20553;-61
2022/05/03 09:35:02;;;;;;;8.43;2.40;;;20.20;69.60;;;;;;5052023;28;20215;-58
2022/05/03 09:37:39;;;;;;;2.70;1.90;;;20.40;71.20;;;;;;5051738;28;20229;-59
2022/05/03 09:40:08;;;;;;;4.10;1.87;;;20.50;70.80;;;;;;5052192;28;20231;-58
2022/05/03 09:42:36;;;;;;;2.67;2.10;;;20.60;70.00;;;;;;5051834;28;20351;-59
2022/05/03 09:45:08;;;;;;;2.60;2.00;;;20.80;70.10;;;;;;5052131;28;20226;-58
2022/05/03 09:47:48;;;;;;;3.57;2.00;;;20.90;69.60;;;;;;5052010;28;20197;-60
2022/05/03 09:50:27;;;;;;;5.17;2.50;;;21.00;69.50;;;;;;5052012;28;20202;-58
2022/05/03 09:52:54;;;;;;;5.10;2.20;;;21.10;69.60;;;;;;5051723;28;20643;-58
2022/05/03 09:55:30;;;;;;;7.03;2.47;;;21.20;69.70;;;;;;5051807;28;20201;-57
2022/05/03 09:57:57;;;;;;;3.20;2.40;;;21.20;67.30;;;;;;5052294;28;20194;-58
2022/05/03 10:00:26;;;;;;;2.07;1.77;;;21.20;67.00;;;;;;5051982;28;20266;-60
2022/05/03 10:02:54;;;;;;;3.80;2.00;;;21.20;66.60;;;;;;5051574;28;20233;-59
2022/05/03 10:05:21;;;;;;;2.90;1.87;;;21.30;67.40;;;;;;5051191;28;20225;-61
2022/05/03 10:07:49;;;;;;;2.73;1.80;;;21.30;67.90;;;;;;5051452;28;20263;-59
2022/05/03 10:10:17;;;;;;;3.27;2.00;;;21.40;68.20;;;;;;5051822;28;20211;-60
2022/05/03 10:12:44;;;;;;;7.93;2.30;;;21.40;66.20;;;;;;5051812;28;20674;-58
2022/05/03 10:15:12;;;;;;;6.23;2.30;;;21.30;65.90;;;;;;5051237;28;20203;-59
2022/05/03 10:20:39;;;;;;;4.10;2.53;;;21.30;66.20;;;;;;5051679;28;20279;-58
2022/05/03 10:23:19;;;;;;;4.83;2.27;;;21.30;66.40;;;;;;5051278;28;20192;-58
2022/05/03 10:25:53;;;;;;;3.70;2.03;;;21.30;66.30;;;;;;5051599;28;20259;-57
2022/05/03 10:28:21;;;;;;;17.97;10.60;;;21.30;67.00;;;;;;5051432;28;20302;-59
2022/05/03 10:31:22;;;;;;;4.80;2.60;;;21.30;66.50;;;;;;5051700;28;20201;-58
2022/05/03 10:33:50;;;;;;;4.57;2.13;;;21.30;66.80;;;;;;4970407;28;20841;-58
2022/05/03 10:36:42;;;;;;;4.27;2.13;;;21.30;67.10;;;;;;4970166;28;20264;-58
2022/05/03 10:39:20;;;;;;;3.63;2.13;;;21.40;67.30;;;;;;4970215;28;20212;-58
2022/05/03 10:41:54;;;;;;;4.93;2.53;;;21.50;66.80;;;;;;4970348;28;20189;-59
2022/05/03 10:44:44;;;;;;;8.93;3.80;;;21.50;66.70;;;;;;4970048;28;20210;-58
2022/05/03 10:47:13;;;;;;;8.57;2.43;;;21.70;66.40;;;;;;4969860;28;20203;-59
2022/05/03 10:50:15;;;;;;;5.17;2.30;;;21.70;64.70;;;;;;4970027;28;20211;-60
2022/05/03 10:52:45;;;;;;;3.30;2.60;;;21.70;65.00;;;;;;4966161;28;20526;-58
2022/05/03 10:55:12;;;;;;;3.67;2.33;;;21.80;64.50;;;;;;4973559;28;20203;-59
2022/05/03 10:58:12;;;;;;;3.93;2.20;;;21.80;62.90;;;;;;4973871;28;20211;-58
2022/05/03 11:01:01;;;;;;;6.23;2.67;;;21.80;63.10;;;;;;4973914;28;20219;-57
2022/05/03 11:03:28;;;;;;;4.00;2.30;;;21.90;62.20;;;;;;4973906;28;20235;-59
2022/05/03 11:06:40;;;;;;;3.10;2.10;;;21.90;62.50;;;;;;5053187;28;20225;-59
2022/05/03 11:09:15;;;;;;;3.93;2.30;;;21.90;63.30;;;;;;4992988;28;20301;-57
2022/05/03 11:11:52;;;;;;;6.27;2.27;;;21.90;63.50;;;;;;5043404;28;20205;-58
2022/05/03 11:14:48;;;;;;;4.60;2.13;;;22.10;62.30;;;;;;5055005;28;20237;-60
2022/05/03 11:17:15;;;;;;;6.70;2.20;;;22.10;62.10;;;;;;5054865;28;20555;-59
2022/05/03 11:19:50;;;;;;;3.23;2.30;;;22.20;63.20;;;;;;5055084;28;20205;-58
2022/05/03 11:22:19;;;;;;;4.27;2.77;;;22.20;63.90;;;;;;5054877;28;20211;-61
2022/05/03 11:24:49;;;;;;;4.33;2.27;;;22.30;62.40;;;;;;5054792;28;20287;-59
2022/05/03 11:27:17;;;;;;;3.23;2.13;;;22.30;62.70;;;;;;5055214;28;20190;-57
2022/05/03 11:29:46;;;;;;;9.47;2.60;;;22.30;62.50;;;;;;5054996;28;20245;-58
2022/05/03 11:32:14;;;;;;;3.07;2.30;;;22.20;61.80;;;;;;5054927;28;20253;-59
2022/05/03 11:34:42;;;;;;;3.10;2.10;;;22.10;61.90;;;;;;5055063;28;20232;-59
2022/05/03 11:37:10;;;;;;;3.30;2.13;;;22.00;61.20;;;;;;5055311;28;20342;-63
2022/05/03 11:39:37;;;;;;;3.57;2.00;;;22.00;61.80;;;;;;5055301;28;20201;-64
2022/05/03 11:42:10;;;;;;;2.43;1.90;;;22.00;62.10;;;;;;5055268;28;20209;-59
2022/05/03 11:44:42;;;;;;;2.93;2.07;;;22.20;62.50;;;;;;5055939;28;20678;-60
2022/05/03 11:47:10;;;;;;;3.37;2.00;;;22.20;61.30;;;;;;5054789;28;20293;-59
2022/05/03 11:49:38;;;;;;;4.83;2.40;;;22.20;61.60;;;;;;5054337;28;20210;-58
2022/05/03 11:57:38;;;;;;;3.93;2.40;;;22.20;61.00;;;;;;5053973;28;20188;-59
2022/05/03 12:00:06;;;;;;;4.00;2.73;;;22.10;60.60;;;;;;5054413;28;20206;-59
2022/05/03 12:02:36;;;;;;;3.13;1.90;;;22.00;60.10;;;;;;5053846;28;20308;-59
2022/05/03 12:05:12;;;;;;;2.83;2.00;;;21.90;60.40;;;;;;5053502;28;20279;-59
2022/05/03 12:07:41;;;;;;;3.27;2.07;;;21.90;60.70;;;;;;5054169;28;20232;-58
2022/05/03 12:10:22;;;;;;;3.17;2.33;;;21.90;61.50;;;;;;5053763;28;20201;-57
2022/05/03 12:13:06;;;;;;;2.57;2.13;;;21.90;61.30;;;;;;5053485;28;20196;-60
2022/05/03 12:15:35;;;;;;;2.50;2.10;;;21.90;60.40;;;;;;5053715;28;20193;-58
2022/05/03 12:18:04;;;;;;;3.60;2.33;;;21.90;59.80;;;;;;5053461;28;20215;-58
2022/05/03 12:20:41;;;;;;;7.70;4.37;;;21.80;59.50;;;;;;5053440;28;20226;-58
2022/05/03 12:23:13;;;;;;;5.53;2.50;;;21.70;60.40;;;;;;5053603;28;20212;-58
2022/05/03 12:25:41;;;;;;;4.53;2.47;;;21.60;60.40;;;;;;5053667;28;20221;-59
2022/05/03 12:28:10;;;;;;;4.03;2.33;;;21.50;61.20;;;;;;5053515;28;20202;-57
2022/05/03 12:30:37;;;;;;;3.97;2.30;;;21.40;61.70;;;;;;5053565;28;20213;-60
2022/05/03 12:33:05;;;;;;;3.03;2.27;;;21.40;61.90;;;;;;5053248;28;20208;-59
2022/05/03 12:35:35;;;;;;;3.13;2.30;;;21.30;62.20;;;;;;5053043;28;20235;-58
2022/05/03 12:38:10;;;;;;;5.70;2.57;;;21.20;62.60;;;;;;5053348;28;20613;-59
2022/05/03 12:40:49;;;;;;;5.10;3.40;;;21.20;61.80;;;;;;5053729;28;20232;-59
2022/05/03 12:43:19;;;;;;;6.87;3.00;;;21.10;61.70;;;;;;5053844;28;20230;-58
2022/05/03 12:46:00;;;;;;;5.77;2.80;;;20.90;66.80;;;;;;5053213;28;20233;-58
2022/05/03 12:48:27;;;;;;;6.40;3.07;;;20.40;70.40;;;;;;5052862;28;20210;-59
2022/05/03 12:50:55;;;;;;;5.50;3.13;;;20.00;72.60;;;;;;5053452;28;20201;-57
2022/05/03 12:53:26;;;;;;;4.63;2.83;;;19.70;75.00;;;;;;5053101;28;20211;-58
2022/05/03 12:55:54;;;;;;;5.53;3.70;;;19.50;75.90;;;;;;5052897;28;20206;-58
2022/05/03 12:58:22;;;;;;;4.67;2.90;;;19.20;76.50;;;;;;5053031;28;20208;-59
2022/05/03 13:00:50;;;;;;;4.27;3.10;;;19.00;76.40;;;;;;5052645;28;20209;-59
2022/05/03 13:03:17;;;;;;;7.53;3.30;;;19.00;77.10;;;;;;5052683;28;20238;-58
2022/05/03 13:05:43;;;;;;;5.37;3.60;;;19.00;78.00;;;;;;5052807;28;20232;-58
2022/05/03 13:08:10;;;;;;;10.97;3.30;;;19.00;78.50;;;;;;5052952;28;20211;-59
2022/05/03 13:10:39;;;;;;;8.90;3.50;;;19.10;80.60;;;;;;5052499;28;20345;-58
2022/05/03 13:13:06;;;;;;;5.00;3.03;;;19.10;81.00;;;;;;5052812;28;20204;-59
2022/05/03 13:15:35;;;;;;;5.30;3.60;;;19.10;81.20;;;;;;5052422;28;20205;-59
2022/05/03 13:18:02;;;;;;;10.37;3.27;;;19.20;80.90;;;;;;5052179;28;20212;-58
2022/05/03 13:20:29;;;;;;;5.33;3.07;;;19.20;80.40;;;;;;5052810;28;20575;-59
2022/05/03 13:22:56;;;;;;;5.77;3.17;;;19.30;77.30;;;;;;5052631;28;20860;-59
2022/05/03 13:25:23;;;;;;;4.07;3.00;;;19.40;77.40;;;;;;5052150;28;20232;-62
2022/05/03 13:27:53;;;;;;;9.10;3.43;;;19.50;79.10;;;;;;5052330;28;20210;-59
2022/05/03 13:30:20;;;;;;;6.00;3.60;;;19.50;79.00;;;;;;5052543;28;20656;-58
2022/05/03 13:32:48;;;;;;;6.23;3.47;;;19.50;79.70;;;;;;5052202;28;20236;-59
2022/05/03 13:35:15;;;;;;;5.13;3.27;;;19.50;79.60;;;;;;5052551;28;20259;-59